createdAt,value
2018-08-30T00:01:02.582Z,49.10
2018-08-30T00:03:30.716Z,49.00
2018-08-30T00:05:58.792Z,49.10
2018-08-30T00:08:26.873Z,49.50
2018-08-30T00:10:54.963Z,49.70
2018-08-30T00:13:23.052Z,49.80
2018-08-30T00:15:51.206Z,50.00
2018-08-30T00:18:19.307Z,50.20
2018-08-30T00:20:47.422Z,50.50
2018-08-30T00:23:15.517Z,50.60
2018-08-30T00:25:43.617Z,50.80
2018-08-30T00:28:11.722Z,50.90
2018-08-30T00:30:39.888Z,51.20
2018-08-30T00:33:08.016Z,50.90
2018-08-30T00:35:36.313Z,50.90
2018-08-30T00:38:04.447Z,50.90
2018-08-30T00:40:32.552Z,50.90
2018-08-30T00:43:00.645Z,51.20
2018-08-30T00:45:28.862Z,51.40
2018-08-30T00:47:56.931Z,51.50
2018-08-30T00:50:25.170Z,51.60
2018-08-30T00:52:53.249Z,51.70
2018-08-30T00:55:21.389Z,51.70
2018-08-30T00:57:49.479Z,51.80
2018-08-30T01:00:17.546Z,52.00
2018-08-30T01:02:45.598Z,52.20
2018-08-30T01:05:13.695Z,52.30
2018-08-30T01:07:41.784Z,52.20
2018-08-30T01:10:09.892Z,52.20
2018-08-30T01:12:43.596Z,52.20
2018-08-30T01:15:11.690Z,52.40
2018-08-30T01:17:39.807Z,52.20
2018-08-30T01:20:07.910Z,51.50
2018-08-30T01:22:36.074Z,51.80
2018-08-30T01:25:04.166Z,51.90
2018-08-30T01:27:32.337Z,51.80
2018-08-30T01:30:00.485Z,51.80
2018-08-30T01:32:28.648Z,51.70
2018-08-30T01:34:56.747Z,52.10
2018-08-30T01:37:24.887Z,52.40
2018-08-30T01:39:53.001Z,52.40
2018-08-30T01:42:21.097Z,53.00
2018-08-30T01:44:49.198Z,53.60
2018-08-30T01:47:17.275Z,53.30
2018-08-30T01:49:45.340Z,53.40
2018-08-30T01:52:13.435Z,53.40
2018-08-30T01:54:41.767Z,53.50
2018-08-30T01:57:09.839Z,53.40
2018-08-30T01:59:37.893Z,53.90
2018-08-30T02:02:05.989Z,53.50
2018-08-30T02:04:34.086Z,54.40
2018-08-30T02:07:02.241Z,54.00
2018-08-30T02:09:30.423Z,54.30
2018-08-30T02:11:58.673Z,54.40
2018-08-30T02:14:26.864Z,54.20
2018-08-30T02:16:55.125Z,55.00
2018-08-30T02:19:23.258Z,54.40
2018-08-30T02:22:01.687Z,54.60
2018-08-30T02:24:36.788Z,54.70
2018-08-30T02:27:15.770Z,54.80
2018-08-30T02:29:43.872Z,54.90
2018-08-30T02:32:11.993Z,54.70
2018-08-30T02:34:40.066Z,54.60
2018-08-30T02:37:08.173Z,54.60
2018-08-30T02:39:36.255Z,54.40
2018-08-30T02:42:04.410Z,54.60
2018-08-30T02:44:32.529Z,54.40
2018-08-30T02:47:00.611Z,54.40
2018-08-30T02:49:28.695Z,54.80
2018-08-30T02:51:56.849Z,55.00
2018-08-30T02:54:25.032Z,55.10
2018-08-30T02:56:53.197Z,56.30
2018-08-30T02:59:21.314Z,55.70
2018-08-30T03:01:49.413Z,55.70
2018-08-30T03:04:17.524Z,55.90
2018-08-30T03:06:45.675Z,55.90
2018-08-30T03:09:13.889Z,55.90
2018-08-30T03:11:42.011Z,55.50
2018-08-30T03:14:10.142Z,55.40
2018-08-30T03:16:38.209Z,55.60
2018-08-30T03:19:06.366Z,56.10
2018-08-30T03:21:34.411Z,55.60
2018-08-30T03:24:02.571Z,55.80
2018-08-30T03:26:30.642Z,56.80
2018-08-30T03:28:58.748Z,56.50
2018-08-30T03:31:26.884Z,56.80
2018-08-30T03:33:55.007Z,56.60
2018-08-30T03:36:23.214Z,56.70
2018-08-30T03:38:51.515Z,56.70
2018-08-30T03:41:19.689Z,56.90
2018-08-30T03:43:47.959Z,57.00
2018-08-30T03:46:16.089Z,57.20
2018-08-30T03:48:44.160Z,57.20
2018-08-30T03:51:12.227Z,57.30
2018-08-30T03:53:40.316Z,57.30
2018-08-30T03:56:08.426Z,57.50
2018-08-30T03:58:36.523Z,57.60
2018-08-30T04:01:04.782Z,57.70
2018-08-30T04:03:32.834Z,57.60
2018-08-30T04:06:00.929Z,57.50
2018-08-30T04:08:29.062Z,57.30
2018-08-30T04:10:57.176Z,57.00
2018-08-30T04:13:25.338Z,57.00
2018-08-30T04:15:53.409Z,56.90
2018-08-30T04:18:21.540Z,57.10
2018-08-30T04:20:49.690Z,57.50
2018-08-30T04:23:17.773Z,57.70
2018-08-30T04:25:45.856Z,57.20
2018-08-30T04:28:13.933Z,57.20
2018-08-30T04:30:42.078Z,57.90
2018-08-30T04:33:10.148Z,57.00
2018-08-30T04:35:38.226Z,57.30
2018-08-30T04:38:06.377Z,57.30
2018-08-30T04:40:34.527Z,57.10
2018-08-30T04:43:02.617Z,57.20
2018-08-30T04:45:30.706Z,56.90
2018-08-30T04:47:58.778Z,56.80
2018-08-30T04:50:26.948Z,56.80
2018-08-30T04:52:55.025Z,56.80
2018-08-30T04:55:23.156Z,56.90
2018-08-30T04:57:51.276Z,57.00
2018-08-30T05:00:19.416Z,57.10
2018-08-30T05:02:47.513Z,56.80
2018-08-30T05:05:15.627Z,56.80
2018-08-30T05:07:43.741Z,57.10
2018-08-30T05:10:11.913Z,57.00
2018-08-30T05:12:39.926Z,56.90
2018-08-30T05:15:08.077Z,57.10
2018-08-30T05:17:36.278Z,57.00
2018-08-30T05:20:04.500Z,57.00
2018-08-30T05:22:32.585Z,57.10
2018-08-30T05:25:01.112Z,56.90
2018-08-30T05:27:29.273Z,57.00
2018-08-30T05:29:57.491Z,57.20
2018-08-30T05:32:25.622Z,57.30
2018-08-30T05:34:53.694Z,57.40
2018-08-30T05:37:21.768Z,57.40
2018-08-30T05:39:49.862Z,57.10
2018-08-30T05:42:17.984Z,57.20
2018-08-30T05:44:46.173Z,58.00
2018-08-30T05:47:14.212Z,58.10
2018-08-30T05:49:42.439Z,58.40
2018-08-30T05:52:10.598Z,58.40
2018-08-30T05:54:38.756Z,58.50
2018-08-30T05:57:07.150Z,58.10
2018-08-30T05:59:35.255Z,58.10
2018-08-30T06:02:03.413Z,57.70
2018-08-30T06:04:31.578Z,57.30
2018-08-30T06:06:59.692Z,57.00
2018-08-30T06:09:27.870Z,57.00
2018-08-30T06:11:55.984Z,57.00
2018-08-30T06:14:24.260Z,57.20
2018-08-30T06:16:52.624Z,57.20
2018-08-30T06:19:21.147Z,57.00
2018-08-30T06:21:49.206Z,57.20
2018-08-30T06:24:17.331Z,57.20
2018-08-30T06:26:45.496Z,57.20
2018-08-30T06:29:13.632Z,57.60
2018-08-30T06:31:41.674Z,57.70
2018-08-30T06:34:09.788Z,57.80
2018-08-30T06:36:37.867Z,57.70
2018-08-30T06:39:07.192Z,58.00
2018-08-30T06:41:35.400Z,58.00
2018-08-30T06:44:03.538Z,58.20
2018-08-30T06:46:31.660Z,58.60
2018-08-30T06:48:59.839Z,59.00
2018-08-30T06:51:27.931Z,59.50
2018-08-30T06:53:56.059Z,59.80
2018-08-30T06:56:24.211Z,59.90
2018-08-30T06:58:52.362Z,59.80
2018-08-30T07:01:20.494Z,59.70
2018-08-30T07:03:48.569Z,59.80
2018-08-30T07:06:16.744Z,59.70
2018-08-30T07:08:44.860Z,60.30
2018-08-30T07:11:12.954Z,59.70
2018-08-30T07:13:41.090Z,60.40
2018-08-30T07:16:09.467Z,60.50
2018-08-30T07:18:37.758Z,60.90
2018-08-30T07:21:06.124Z,61.10
2018-08-30T07:23:34.174Z,61.50
2018-08-30T07:26:02.289Z,61.70
2018-08-30T07:28:30.448Z,62.40
2018-08-30T07:30:58.521Z,64.00
2018-08-30T07:33:26.611Z,66.40
2018-08-30T07:35:54.775Z,68.00
2018-08-30T07:38:22.854Z,68.60
2018-08-30T07:40:50.987Z,68.80
2018-08-30T07:43:19.056Z,70.90
2018-08-30T07:45:47.196Z,72.00
2018-08-30T07:48:15.261Z,72.60
2018-08-30T07:50:43.346Z,72.90
2018-08-30T07:53:11.418Z,73.90
2018-08-30T07:55:39.519Z,75.10
2018-08-30T07:58:07.618Z,75.40
2018-08-30T08:00:35.713Z,78.00
2018-08-30T08:03:03.806Z,78.70
2018-08-30T08:05:31.932Z,79.00
2018-08-30T08:08:00.017Z,78.80
2018-08-30T08:10:28.112Z,78.80
2018-08-30T08:12:56.198Z,77.60
2018-08-30T08:15:24.387Z,79.30
2018-08-30T08:17:52.514Z,79.80
2018-08-30T08:20:20.617Z,80.70
2018-08-30T08:22:48.703Z,80.50
2018-08-30T08:25:16.857Z,81.10
2018-08-30T08:27:44.919Z,81.00
2018-08-30T08:30:13.094Z,81.90
2018-08-30T08:32:41.273Z,82.40
2018-08-30T08:35:09.383Z,82.90
2018-08-30T08:37:37.494Z,83.10
2018-08-30T08:40:05.640Z,83.20
2018-08-30T08:42:33.715Z,84.10
2018-08-30T08:45:01.924Z,83.60
2018-08-30T08:47:30.017Z,83.60
2018-08-30T08:49:58.113Z,84.20
2018-08-30T08:52:26.165Z,84.70
2018-08-30T08:54:54.281Z,84.30
2018-08-30T08:57:22.433Z,84.70
2018-08-30T08:59:50.705Z,85.20
2018-08-30T09:02:18.801Z,85.50
2018-08-30T09:04:46.854Z,86.20
2018-08-30T09:07:15.108Z,86.00
2018-08-30T09:09:43.113Z,85.30
2018-08-30T09:12:11.285Z,84.60
2018-08-30T09:14:39.372Z,84.70
2018-08-30T09:17:07.488Z,84.50
2018-08-30T09:19:35.584Z,84.20
2018-08-30T09:22:03.678Z,83.90
2018-08-30T09:24:31.738Z,83.80
2018-08-30T09:26:59.861Z,83.60
2018-08-30T09:29:27.934Z,83.70
2018-08-30T09:31:56.059Z,84.60
2018-08-30T09:34:24.153Z,84.70
2018-08-30T09:36:52.222Z,84.80
2018-08-30T09:39:20.385Z,86.10
2018-08-30T09:41:48.713Z,86.40
2018-08-30T09:44:16.972Z,85.80
2018-08-30T09:46:45.136Z,87.50
2018-08-30T09:49:13.308Z,88.20
2018-08-30T09:51:41.395Z,86.40
2018-08-30T09:54:09.529Z,86.10
2018-08-30T09:56:37.647Z,86.70
2018-08-30T09:59:06.038Z,86.30
2018-08-30T10:01:39.368Z,87.00
2018-08-30T10:04:07.463Z,86.40
2018-08-30T10:06:35.584Z,86.60
2018-08-30T10:09:04.103Z,86.40
2018-08-30T10:11:32.228Z,86.50
2018-08-30T10:14:00.346Z,86.60
2018-08-30T10:16:28.418Z,87.30
2018-08-30T10:18:56.468Z,88.10
2018-08-30T10:21:24.621Z,88.40
2018-08-30T10:23:52.742Z,87.90
2018-08-30T10:26:20.859Z,88.20
2018-08-30T10:28:48.986Z,88.20
2018-08-30T10:31:17.075Z,87.70
2018-08-30T10:33:45.178Z,88.10
2018-08-30T10:36:13.313Z,88.20
2018-08-30T10:38:41.756Z,89.20
2018-08-30T10:41:09.879Z,89.10
2018-08-30T10:43:38.098Z,89.00
2018-08-30T10:46:06.193Z,88.90
2018-08-30T10:48:34.334Z,88.70
2018-08-30T10:51:02.402Z,88.40
2018-08-30T10:53:30.508Z,88.90
2018-08-30T10:55:58.741Z,89.40
2018-08-30T10:58:26.834Z,89.80
2018-08-30T11:00:54.918Z,89.70
2018-08-30T11:03:23.026Z,89.90
2018-08-30T11:05:51.125Z,90.20
2018-08-30T11:08:19.280Z,90.00
2018-08-30T11:10:47.370Z,89.40
2018-08-30T11:13:15.516Z,88.70
2018-08-30T11:15:43.597Z,87.70
2018-08-30T11:18:11.680Z,87.60
2018-08-30T11:20:39.798Z,87.00
2018-08-30T11:23:07.895Z,85.70
2018-08-30T11:25:35.992Z,85.10
2018-08-30T11:28:04.262Z,85.70
2018-08-30T11:30:32.617Z,86.80
2018-08-30T11:33:00.829Z,86.20
2018-08-30T11:35:28.967Z,86.60
2018-08-30T11:37:57.109Z,86.80
2018-08-30T11:40:25.254Z,87.20
2018-08-30T11:42:53.377Z,86.90
2018-08-30T11:45:21.431Z,86.80
2018-08-30T11:47:49.552Z,87.60
2018-08-30T11:50:18.114Z,87.60
2018-08-30T11:52:46.329Z,87.70
2018-08-30T11:55:14.383Z,88.50
2018-08-30T11:57:42.489Z,88.60
2018-08-30T12:00:10.581Z,90.10
2018-08-30T12:02:38.668Z,90.50
2018-08-30T12:05:07.115Z,90.50
2018-08-30T12:07:35.461Z,90.20
2018-08-30T12:10:03.735Z,90.20
2018-08-30T12:12:31.866Z,89.50
2018-08-30T12:15:00.039Z,88.10
2018-08-30T12:17:28.142Z,87.00
2018-08-30T12:19:56.211Z,84.90
2018-08-30T12:22:24.315Z,84.30
2018-08-30T12:24:52.409Z,82.90
2018-08-30T12:27:20.562Z,80.90
2018-08-30T12:29:48.640Z,79.40
2018-08-30T12:32:16.772Z,78.80
2018-08-30T12:34:44.866Z,77.70
2018-08-30T12:37:13.193Z,79.40
2018-08-30T12:39:41.538Z,77.30
2018-08-30T12:42:09.643Z,76.50
2018-08-30T12:44:37.836Z,76.10
2018-08-30T12:47:05.986Z,75.80
2018-08-30T12:49:34.152Z,76.20
2018-08-30T12:52:02.433Z,76.60
2018-08-30T12:54:30.539Z,77.00
2018-08-30T12:56:58.702Z,77.20
2018-08-30T12:59:32.277Z,78.10
2018-08-30T13:02:00.395Z,79.10
2018-08-30T13:04:28.574Z,79.60
2018-08-30T13:06:57.599Z,80.20
2018-08-30T13:09:27.109Z,80.10
2018-08-30T13:11:56.595Z,80.10
2018-08-30T13:14:24.571Z,80.30
2018-08-30T13:16:52.730Z,80.50
2018-08-30T13:19:20.921Z,79.80
2018-08-30T13:21:49.598Z,79.30
2018-08-30T13:24:17.895Z,79.00
2018-08-30T13:26:46.073Z,79.00
2018-08-30T13:29:14.534Z,78.60
2018-08-30T13:31:42.940Z,78.50
2018-08-30T13:34:11.119Z,78.10
2018-08-30T13:36:39.071Z,77.40
2018-08-30T13:39:09.214Z,77.30
2018-08-30T13:41:37.305Z,77.60
2018-08-30T13:44:06.294Z,77.90
2018-08-30T13:46:34.468Z,77.80
2018-08-30T13:49:02.628Z,77.20
2018-08-30T13:51:30.643Z,77.40
2018-08-30T13:53:59.038Z,76.10
2018-08-30T13:56:27.317Z,76.10
2018-08-30T13:58:55.519Z,76.40
2018-08-30T14:01:23.484Z,76.00
2018-08-30T14:03:51.486Z,75.60
2018-08-30T14:06:22.034Z,76.10
2018-08-30T14:08:50.224Z,76.70
2018-08-30T14:11:18.436Z,77.10
2018-08-30T14:13:46.429Z,77.20
2018-08-30T14:16:14.211Z,77.10
2018-08-30T14:18:42.360Z,77.00
2018-08-30T14:21:10.458Z,77.00
2018-08-30T14:23:38.622Z,77.30
2018-08-30T14:26:06.723Z,77.80
2018-08-30T14:28:34.813Z,77.90
2018-08-30T14:31:02.917Z,77.90
2018-08-30T14:33:31.055Z,78.00
2018-08-30T14:35:59.148Z,77.90
2018-08-30T14:38:27.296Z,78.10
2018-08-30T14:40:55.513Z,76.90
2018-08-30T14:43:23.498Z,76.90
2018-08-30T14:45:51.618Z,76.80
2018-08-30T14:48:20.227Z,76.60
2018-08-30T14:50:48.345Z,77.00
2018-08-30T14:53:16.425Z,77.20
2018-08-30T14:55:44.518Z,76.60
2018-08-30T14:58:12.698Z,76.70
2018-08-30T15:00:40.717Z,76.00
2018-08-30T15:03:08.795Z,75.50
2018-08-30T15:05:37.023Z,75.20
2018-08-30T15:08:05.018Z,74.80
2018-08-30T15:10:33.168Z,75.00
2018-08-30T15:13:01.247Z,75.40
2018-08-30T15:15:29.360Z,75.40
2018-08-30T15:17:57.437Z,75.70
2018-08-30T15:20:25.536Z,75.50
2018-08-30T15:22:53.721Z,75.40
2018-08-30T15:25:21.885Z,75.60
2018-08-30T15:27:49.844Z,75.90
2018-08-30T15:30:18.928Z,76.30
2018-08-30T15:32:47.209Z,76.50
2018-08-30T15:35:15.164Z,76.80
2018-08-30T15:37:43.227Z,78.30
2018-08-30T15:40:11.356Z,79.60
2018-08-30T15:42:39.862Z,80.00
2018-08-30T15:45:07.981Z,79.70
2018-08-30T15:47:36.126Z,79.80
2018-08-30T15:50:04.527Z,79.70
2018-08-30T15:52:32.699Z,79.30
2018-08-30T15:55:00.766Z,79.30
2018-08-30T15:57:28.874Z,79.70
2018-08-30T15:59:57.014Z,81.50
2018-08-30T16:02:25.131Z,83.30
2018-08-30T16:04:53.277Z,85.00
2018-08-30T16:07:21.378Z,86.20
2018-08-30T16:09:49.601Z,88.80
2018-08-30T16:12:17.598Z,90.20
2018-08-30T16:14:45.701Z,91.20
2018-08-30T16:17:13.945Z,92.10
2018-08-30T16:19:41.977Z,92.60
2018-08-30T16:22:10.049Z,93.10
2018-08-30T16:24:38.219Z,94.20
2018-08-30T16:27:06.261Z,93.90
2018-08-30T16:29:34.363Z,94.00
2018-08-30T16:32:02.473Z,94.60
2018-08-30T16:34:30.533Z,94.40
2018-08-30T16:36:58.667Z,94.40
2018-08-30T16:39:26.768Z,94.50
2018-08-30T16:41:54.870Z,95.10
2018-08-30T16:44:23.032Z,94.70
2018-08-30T16:46:51.405Z,94.30
2018-08-30T16:49:19.493Z,94.60
2018-08-30T16:51:47.563Z,94.60
2018-08-30T16:54:15.647Z,94.20
2018-08-30T16:56:43.741Z,94.20
2018-08-30T16:59:11.821Z,94.20
2018-08-30T17:01:39.947Z,93.70
2018-08-30T17:04:08.056Z,93.60
2018-08-30T17:06:36.247Z,93.70
2018-08-30T17:09:05.350Z,94.10
2018-08-30T17:11:33.426Z,94.00
2018-08-30T17:14:01.493Z,94.10
2018-08-30T17:16:29.574Z,94.50
2018-08-30T17:19:03.782Z,94.00
2018-08-30T17:21:31.938Z,93.90
2018-08-30T17:24:00.055Z,94.30
2018-08-30T17:26:28.132Z,94.10
2018-08-30T17:28:56.267Z,94.50
2018-08-30T17:31:24.502Z,94.60
2018-08-30T17:33:52.483Z,94.90
2018-08-30T17:36:20.593Z,94.20
2018-08-30T17:38:48.730Z,94.10
2018-08-30T17:41:16.861Z,94.60
2018-08-30T17:43:44.959Z,94.70
2018-08-30T17:46:13.111Z,94.90
2018-08-30T17:48:41.167Z,94.80
2018-08-30T17:51:10.175Z,94.30
2018-08-30T17:53:38.426Z,94.40
2018-08-30T17:56:06.725Z,94.50
2018-08-30T17:58:34.732Z,94.70
2018-08-30T18:01:02.860Z,95.30
2018-08-30T18:03:30.964Z,96.40
2018-08-30T18:05:59.074Z,96.10
2018-08-30T18:08:27.168Z,96.20
2018-08-30T18:10:55.313Z,97.00
2018-08-30T18:13:23.436Z,97.20
2018-08-30T18:15:51.531Z,97.10
2018-08-30T18:18:19.732Z,97.30
2018-08-30T18:20:47.781Z,97.90
2018-08-30T18:23:15.877Z,98.00
2018-08-30T18:25:43.943Z,97.80
2018-08-30T18:28:12.062Z,96.90
2018-08-30T18:30:40.139Z,96.70
2018-08-30T18:33:08.267Z,96.40
2018-08-30T18:35:36.440Z,96.70
2018-08-30T18:38:04.947Z,96.80
2018-08-30T18:40:33.152Z,96.50
2018-08-30T18:43:01.254Z,96.70
2018-08-30T18:45:29.356Z,97.60
2018-08-30T18:47:57.464Z,97.40
2018-08-30T18:50:25.559Z,97.60
2018-08-30T18:52:53.645Z,97.70
2018-08-30T18:55:21.718Z,97.30
2018-08-30T18:57:49.857Z,97.90
2018-08-30T19:00:17.965Z,98.60
2018-08-30T19:02:46.061Z,99.10
2018-08-30T19:05:14.201Z,98.90
2018-08-30T19:07:42.313Z,99.70
2018-08-30T19:10:11.435Z,99.20
2018-08-30T19:12:39.515Z,99.20
2018-08-30T19:15:13.141Z,98.90
2018-08-30T19:17:46.691Z,98.10
2018-08-30T19:20:14.762Z,98.70
2018-08-30T19:22:42.834Z,98.10
2018-08-30T19:25:13.488Z,98.30
2018-08-30T19:27:42.036Z,98.50
2018-08-30T19:30:15.624Z,98.10
2018-08-30T19:32:43.722Z,98.50
2018-08-30T19:35:17.196Z,97.80
2018-08-30T19:37:45.292Z,98.40
2018-08-30T19:40:18.932Z,98.60
2018-08-30T19:42:47.139Z,97.90
2018-08-30T19:45:15.103Z,97.50
2018-08-30T19:47:43.181Z,97.70
2018-08-30T19:50:11.271Z,97.80
2018-08-30T19:52:39.377Z,97.60
2018-08-30T19:55:07.701Z,97.20
2018-08-30T19:57:35.800Z,97.00
2018-08-30T20:00:04.471Z,96.80
2018-08-30T20:02:32.699Z,97.00
2018-08-30T20:05:00.795Z,96.80
2018-08-30T20:07:28.982Z,96.80
2018-08-30T20:09:57.034Z,97.10
2018-08-30T20:12:25.134Z,96.50
2018-08-30T20:14:53.264Z,96.50
2018-08-30T20:17:21.424Z,96.20
2018-08-30T20:19:49.635Z,96.30
2018-08-30T20:22:17.776Z,96.20
2018-08-30T20:24:45.862Z,96.00
2018-08-30T20:27:14.019Z,95.60
2018-08-30T20:29:42.122Z,95.30
2018-08-30T20:32:10.345Z,94.90
2018-08-30T20:34:38.446Z,94.80
2018-08-30T20:37:06.496Z,94.60
2018-08-30T20:39:34.611Z,94.40
2018-08-30T20:42:02.694Z,94.10
2018-08-30T20:44:30.858Z,93.80
2018-08-30T20:46:59.023Z,93.80
2018-08-30T20:49:27.169Z,94.10
2018-08-30T20:51:55.250Z,94.00
2018-08-30T20:54:23.315Z,93.70
2018-08-30T20:56:51.387Z,93.80
2018-08-30T20:59:19.496Z,93.10
2018-08-30T21:01:47.704Z,93.20
2018-08-30T21:04:15.843Z,93.20
2018-08-30T21:06:43.991Z,93.10
2018-08-30T21:09:12.158Z,92.90
2018-08-30T21:11:40.433Z,93.00
2018-08-30T21:14:08.526Z,93.00
2018-08-30T21:16:36.586Z,92.90
2018-08-30T21:19:04.700Z,93.10
2018-08-30T21:21:33.192Z,92.90
2018-08-30T21:24:01.268Z,92.80
2018-08-30T21:26:29.455Z,92.60
2018-08-30T21:28:57.554Z,92.40
2018-08-30T21:31:25.763Z,92.60
2018-08-30T21:33:53.886Z,92.40
2018-08-30T21:36:21.946Z,92.50
2018-08-30T21:38:50.071Z,92.60
2018-08-30T21:41:18.176Z,92.20
2018-08-30T21:43:46.348Z,92.40
2018-08-30T21:46:14.412Z,92.10
2018-08-30T21:48:42.527Z,92.20
2018-08-30T21:51:10.608Z,92.30
2018-08-30T21:53:38.813Z,92.10
2018-08-30T21:56:07.041Z,92.00
2018-08-30T21:58:35.131Z,91.80
2018-08-30T22:01:03.207Z,91.90
2018-08-30T22:03:31.259Z,91.90
2018-08-30T22:05:59.483Z,92.00
2018-08-30T22:08:27.529Z,91.70
2018-08-30T22:10:55.658Z,91.60
2018-08-30T22:13:23.863Z,91.50
2018-08-30T22:15:51.826Z,91.10
2018-08-30T22:18:19.942Z,91.20
2018-08-30T22:20:48.276Z,90.90
2018-08-30T22:23:16.396Z,91.00
2018-08-30T22:25:44.563Z,90.90
2018-08-30T22:28:12.632Z,90.60
2018-08-30T22:30:40.732Z,90.50
2018-08-30T22:33:08.827Z,90.20
2018-08-30T22:35:36.914Z,90.10
2018-08-30T22:38:05.159Z,89.40
2018-08-30T22:40:33.218Z,89.50
2018-08-30T22:43:01.325Z,89.40
2018-08-30T22:45:29.398Z,89.20
2018-08-30T22:47:57.477Z,88.70
2018-08-30T22:50:25.610Z,88.90
2018-08-30T22:52:53.659Z,89.00
2018-08-30T22:55:21.749Z,88.80
2018-08-30T22:57:49.802Z,87.40
2018-08-30T23:00:17.927Z,88.00
2018-08-30T23:02:45.991Z,87.60
2018-08-30T23:05:14.053Z,87.90
2018-08-30T23:07:42.138Z,87.60
2018-08-30T23:10:10.286Z,87.30
2018-08-30T23:12:38.381Z,87.40
2018-08-30T23:15:06.677Z,86.50
2018-08-30T23:17:34.770Z,85.80
2018-08-30T23:20:02.889Z,85.80
2018-08-30T23:22:30.965Z,85.60
2018-08-30T23:24:59.066Z,85.10
2018-08-30T23:27:27.190Z,85.60
2018-08-30T23:29:55.277Z,85.70
2018-08-30T23:32:23.374Z,85.90
2018-08-30T23:34:51.495Z,86.10
2018-08-30T23:37:19.580Z,85.90
2018-08-30T23:39:47.668Z,85.60
2018-08-30T23:42:15.752Z,85.80
2018-08-30T23:44:43.810Z,85.80
2018-08-30T23:47:11.900Z,86.00
2018-08-30T23:49:39.964Z,85.80
2018-08-30T23:52:08.027Z,85.30
2018-08-30T23:54:36.147Z,85.30
2018-08-30T23:57:04.495Z,85.00
2018-08-30T23:59:43.957Z,85.50
